createdAt,value
2023-02-19T00:00:43.880Z,23.67
2023-02-19T00:03:12.922Z,21.33
2023-02-19T00:05:39.742Z,23.67
2023-02-19T00:08:09.659Z,22.00
2023-02-19T00:10:39.319Z,22.67
2023-02-19T00:13:08.818Z,28.33
2023-02-19T00:15:36.723Z,28.00
2023-02-19T00:18:03.325Z,27.33
2023-02-19T00:20:29.838Z,21.00
2023-02-19T00:22:56.399Z,19.33
2023-02-19T00:25:22.959Z,23.67
2023-02-19T00:27:49.380Z,22.00
2023-02-19T00:30:16.187Z,19.67
2023-02-19T00:32:42.763Z,25.33
2023-02-19T00:35:09.213Z,22.00
2023-02-19T00:40:12.103Z,17.67
2023-02-19T00:42:39.794Z,16.00
2023-02-19T00:45:07.036Z,14.00
2023-02-19T00:47:37.782Z,16.00
2023-02-19T00:50:04.403Z,14.33
2023-02-19T00:52:32.490Z,14.00
2023-02-19T00:55:01.954Z,20.00
2023-02-19T00:57:29.038Z,28.67
2023-02-19T01:02:51.394Z,25.33
2023-02-19T01:08:45.012Z,19.33
2023-02-19T01:17:54.035Z,19.33
2023-02-19T01:27:04.922Z,14.67
2023-02-19T01:29:40.472Z,13.33
2023-02-19T01:32:16.957Z,24.00
2023-02-19T01:34:46.482Z,23.00
2023-02-19T01:37:13.294Z,25.00
2023-02-19T01:39:48.637Z,27.67
2023-02-19T01:42:18.982Z,21.33
2023-02-19T01:44:55.209Z,26.00
2023-02-19T01:47:30.347Z,21.33
2023-02-19T01:50:03.297Z,17.00
2023-02-19T01:52:39.759Z,16.67
2023-02-19T01:55:21.871Z,26.00
2023-02-19T01:57:53.517Z,19.33
2023-02-19T02:00:29.121Z,26.33
2023-02-19T02:03:08.253Z,17.33
2023-02-19T02:05:57.565Z,24.00
2023-02-19T02:08:47.602Z,17.33
2023-02-19T02:11:31.586Z,19.67
2023-02-19T02:14:06.051Z,20.33
2023-02-19T02:16:49.937Z,21.33
2023-02-19T02:19:19.091Z,20.67
2023-02-19T02:21:57.830Z,21.67
2023-02-19T02:24:30.364Z,16.67
2023-02-19T02:27:26.291Z,17.67
2023-02-19T02:30:38.655Z,23.00
2023-02-19T02:33:24.036Z,19.33
2023-02-19T02:36:08.272Z,25.00
2023-02-19T02:38:40.545Z,22.67
2023-02-19T02:41:21.171Z,23.33
2023-02-19T02:43:51.198Z,23.00
2023-02-19T02:46:39.588Z,21.50
2023-02-19T02:49:32.228Z,31.00
2023-02-19T02:52:02.250Z,27.50
2023-02-19T02:54:57.455Z,32.00
2023-02-19T02:57:30.694Z,42.33
2023-02-19T03:00:03.821Z,28.25
2023-02-19T03:02:33.701Z,26.67
2023-02-19T03:05:24.559Z,25.67
2023-02-19T03:08:40.486Z,24.67
2023-02-19T03:11:31.840Z,22.33
2023-02-19T03:14:35.728Z,19.33
2023-02-19T03:17:31.821Z,19.00
2023-02-19T03:20:10.224Z,16.00
2023-02-19T03:22:52.089Z,15.00
2023-02-19T03:25:55.813Z,17.33
2023-02-19T03:28:51.145Z,11.67
2023-02-19T03:31:30.509Z,22.33
2023-02-19T03:34:29.067Z,16.00
2023-02-19T03:37:36.670Z,23.33
2023-02-19T03:40:03.776Z,13.33
2023-02-19T03:42:30.171Z,24.33
2023-02-19T03:45:15.570Z,17.33
2023-02-19T03:47:59.467Z,22.67
2023-02-19T03:53:50.857Z,18.33
2023-02-19T03:56:48.567Z,18.33
2023-02-19T03:59:47.313Z,23.33
2023-02-19T04:02:24.525Z,18.67
2023-02-19T04:05:14.144Z,19.00
2023-02-19T04:07:53.939Z,21.67
2023-02-19T04:10:21.913Z,22.00
2023-02-19T04:12:59.988Z,16.67
2023-02-19T04:15:47.559Z,23.33
2023-02-19T04:18:39.848Z,19.00
2023-02-19T04:21:28.413Z,18.00
2023-02-19T04:24:01.013Z,17.25
2023-02-19T04:26:34.165Z,21.67
2023-02-19T04:29:05.279Z,19.33
2023-02-19T04:31:40.888Z,19.00
2023-02-19T04:34:17.568Z,14.67
2023-02-19T04:36:51.376Z,15.33
2023-02-19T04:39:33.081Z,15.00
2023-02-19T04:42:33.039Z,20.00
2023-02-19T04:45:10.389Z,16.00
2023-02-19T04:50:41.536Z,11.33
2023-02-19T04:53:34.912Z,26.33
2023-02-19T05:05:42.347Z,30.67
2023-02-19T05:08:32.681Z,30.00
2023-02-19T05:11:07.171Z,20.67
2023-02-19T05:13:39.900Z,15.50
2023-02-19T05:16:16.404Z,24.67
2023-02-19T05:18:44.973Z,24.33
2023-02-19T05:21:21.515Z,24.33
2023-02-19T05:23:48.298Z,22.00
2023-02-19T05:26:18.264Z,19.67
2023-02-19T05:28:48.811Z,19.00
2023-02-19T05:31:15.797Z,21.00
2023-02-19T05:36:26.264Z,20.00
2023-02-19T05:38:59.044Z,25.33
2023-02-19T05:41:48.696Z,24.33
2023-02-19T05:44:17.354Z,22.67
2023-02-19T05:46:44.024Z,21.33
2023-02-19T05:51:50.321Z,19.33
2023-02-19T05:54:17.749Z,25.00
2023-02-19T05:56:50.417Z,28.00
2023-02-19T05:59:21.907Z,22.33
2023-02-19T06:01:50.024Z,28.33
2023-02-19T06:07:01.579Z,22.33
2023-02-19T06:09:29.489Z,15.33
2023-02-19T06:12:00.567Z,26.67
2023-02-19T06:14:51.726Z,25.67
2023-02-19T06:20:41.041Z,27.33
2023-02-19T06:30:00.816Z,29.25
2023-02-19T06:38:19.957Z,26.33
2023-02-19T06:46:51.409Z,21.33
2023-02-19T06:49:26.389Z,24.67
2023-02-19T07:00:19.629Z,21.00
2023-02-19T07:02:49.342Z,22.67
2023-02-19T07:10:59.509Z,33.67
2023-02-19T07:13:29.752Z,39.00
2023-02-19T07:18:53.855Z,46.00
2023-02-19T07:21:20.794Z,45.00
2023-02-19T07:23:47.711Z,46.00
2023-02-19T07:26:18.294Z,54.75
2023-02-19T07:28:45.225Z,36.00
2023-02-19T07:31:12.697Z,35.00
2023-02-19T07:33:39.420Z,28.67
2023-02-19T07:36:08.887Z,25.33
2023-02-19T07:38:35.553Z,26.75
2023-02-19T07:41:02.920Z,31.00
2023-02-19T07:43:31.344Z,21.67
2023-02-19T07:45:57.769Z,29.00
2023-02-19T07:48:24.313Z,33.00
2023-02-19T07:50:54.998Z,34.67
2023-02-19T07:53:22.068Z,32.33
2023-02-19T07:55:49.471Z,35.33
2023-02-19T07:58:16.520Z,31.00
2023-02-19T08:00:43.295Z,34.33
2023-02-19T08:03:10.323Z,34.67
2023-02-19T08:05:46.304Z,26.33
2023-02-19T08:08:14.158Z,39.00
2023-02-19T08:11:00.620Z,41.50
2023-02-19T08:13:30.408Z,58.50
2023-02-19T08:16:20.040Z,28.00
2023-02-19T08:18:50.853Z,45.67
2023-02-19T08:21:27.670Z,59.25
2023-02-19T08:23:54.648Z,36.67
2023-02-19T08:26:21.522Z,40.33
2023-02-19T08:28:49.075Z,38.00
2023-02-19T08:31:16.103Z,37.00
2023-02-19T08:33:42.763Z,73.50
2023-02-19T08:36:11.580Z,52.00
2023-02-19T08:38:39.298Z,37.67
2023-02-19T08:41:09.987Z,36.33
2023-02-19T08:43:36.999Z,29.00
2023-02-19T08:46:03.847Z,37.67
2023-02-19T08:48:30.447Z,32.25
2023-02-19T08:50:58.523Z,37.00
2023-02-19T08:53:25.721Z,32.00
2023-02-19T08:55:52.483Z,54.00
2023-02-19T08:58:19.109Z,29.00
2023-02-19T09:00:45.521Z,30.00
2023-02-19T09:03:26.034Z,36.67
2023-02-19T09:05:54.220Z,30.67
2023-02-19T09:08:30.137Z,44.00
2023-02-19T09:11:02.145Z,39.00
2023-02-19T09:13:28.975Z,36.75
2023-02-19T09:16:05.263Z,40.33
2023-02-19T09:18:40.699Z,33.00
2023-02-19T09:21:07.841Z,32.33
2023-02-19T09:26:25.716Z,24.50
2023-02-19T09:28:55.603Z,37.67
2023-02-19T09:37:03.435Z,41.67
2023-02-19T09:39:49.321Z,26.25
2023-02-19T09:42:27.132Z,26.50
2023-02-19T09:45:23.790Z,19.50
2023-02-19T09:47:53.683Z,16.50
2023-02-19T09:50:23.227Z,21.25
2023-02-19T09:53:04.573Z,21.25
2023-02-19T09:55:31.427Z,27.33
2023-02-19T09:58:00.677Z,24.00
2023-02-19T10:00:29.717Z,28.67
2023-02-19T10:03:05.343Z,24.00
2023-02-19T10:05:34.955Z,14.25
2023-02-19T10:08:06.652Z,11.00
2023-02-19T10:10:35.032Z,10.25
2023-02-19T10:13:23.154Z,18.00
2023-02-19T10:16:05.447Z,17.25
2023-02-19T10:18:37.848Z,13.75
2023-02-19T10:21:04.786Z,24.75
2023-02-19T10:23:32.216Z,29.00
2023-02-19T10:25:59.877Z,11.50
2023-02-19T10:28:32.370Z,3.00
2023-02-19T10:31:00.552Z,32.00
2023-02-19T10:33:29.093Z,14.75
2023-02-19T10:35:58.383Z,15.00
2023-02-19T10:38:28.562Z,16.00
2023-02-19T10:41:18.662Z,21.00
2023-02-19T10:43:51.473Z,47.33
2023-02-19T10:46:20.940Z,42.67
2023-02-19T10:48:51.982Z,16.50
2023-02-19T10:51:22.822Z,12.75
2023-02-19T10:53:50.605Z,17.75
2023-02-19T10:56:25.845Z,12.25
2023-02-19T10:58:59.364Z,6.75
2023-02-19T11:01:27.242Z,6.25
2023-02-19T11:04:12.446Z,9.00
2023-02-19T11:06:39.198Z,7.50
2023-02-19T11:09:06.594Z,11.00
2023-02-19T11:11:39.140Z,11.75
2023-02-19T11:14:15.423Z,18.25
2023-02-19T11:16:43.852Z,7.00
2023-02-19T11:19:24.507Z,10.25
2023-02-19T11:21:51.185Z,11.75
2023-02-19T11:24:38.056Z,23.25
2023-02-19T11:27:06.944Z,8.75
2023-02-19T11:29:38.228Z,20.25
2023-02-19T11:32:36.910Z,24.75
2023-02-19T11:35:18.135Z,25.25
2023-02-19T11:38:01.136Z,38.00
2023-02-19T11:40:46.263Z,24.50
2023-02-19T11:43:24.779Z,19.00
2023-02-19T11:46:03.478Z,1.25
2023-02-19T11:48:37.760Z,21.50
2023-02-19T11:51:04.209Z,22.25
2023-02-19T11:53:37.345Z,21.25
2023-02-19T11:56:03.692Z,16.50
2023-02-19T11:58:46.563Z,11.00
2023-02-19T12:01:19.862Z,14.00
2023-02-19T12:04:05.027Z,20.75
2023-02-19T12:06:31.927Z,16.75
2023-02-19T12:09:07.525Z,16.25
2023-02-19T12:11:48.984Z,20.00
2023-02-19T12:14:24.669Z,22.50
2023-02-19T12:17:03.222Z,22.75
2023-02-19T12:19:29.664Z,11.50
2023-02-19T12:22:09.542Z,17.75
2023-02-19T12:24:36.324Z,59.75
2023-02-19T12:27:08.652Z,69.00
2023-02-19T12:29:39.209Z,94.25
2023-02-19T12:32:10.109Z,62.25
2023-02-19T12:34:55.327Z,71.75
2023-02-19T12:37:27.763Z,155.50
2023-02-19T12:40:17.812Z,73.75
2023-02-19T12:43:09.871Z,48.50
2023-02-19T12:45:39.213Z,87.75
2023-02-19T12:48:07.937Z,11.25
2023-02-19T12:50:35.605Z,34.00
2023-02-19T12:53:05.883Z,30.00
2023-02-19T12:55:34.223Z,27.00
2023-02-19T12:58:05.962Z,13.50
2023-02-19T13:00:47.822Z,13.00
2023-02-19T13:03:22.852Z,17.50
2023-02-19T13:06:11.521Z,16.50
2023-02-19T13:09:03.475Z,19.50
2023-02-19T13:11:41.938Z,64.50
2023-02-19T13:16:56.389Z,23.50
2023-02-19T13:19:24.830Z,39.33
2023-02-19T13:22:22.227Z,27.75
2023-02-19T13:24:49.604Z,40.00
2023-02-19T13:27:25.008Z,46.50
2023-02-19T13:29:57.362Z,48.33
2023-02-19T13:32:43.078Z,48.33
2023-02-19T13:35:12.262Z,32.25
2023-02-19T13:37:39.010Z,14.75
2023-02-19T13:40:26.085Z,33.67
2023-02-19T13:42:57.498Z,24.00
2023-02-19T13:45:29.221Z,22.25
2023-02-19T13:47:57.131Z,30.67
2023-02-19T13:50:25.141Z,90.25
2023-02-19T13:52:53.083Z,35.50
2023-02-19T14:01:16.475Z,61.25
2023-02-19T14:03:42.835Z,31.00
2023-02-19T14:06:10.168Z,25.33
2023-02-19T14:08:58.419Z,11.00
2023-02-19T14:11:43.095Z,33.67
2023-02-19T14:14:21.810Z,19.00
2023-02-19T14:16:48.149Z,19.50
2023-02-19T14:19:15.650Z,20.75
2023-02-19T14:21:43.929Z,43.00
2023-02-19T14:24:15.042Z,31.33
2023-02-19T14:26:41.795Z,66.50
2023-02-19T14:29:09.185Z,28.67
2023-02-19T14:31:39.653Z,82.50
2023-02-19T14:34:06.635Z,70.25
2023-02-19T14:36:35.740Z,54.50
2023-02-19T14:39:08.011Z,56.25
2023-02-19T14:41:38.784Z,34.67
2023-02-19T14:44:07.641Z,58.25
2023-02-19T14:47:00.497Z,37.50
2023-02-19T14:49:39.154Z,36.00
2023-02-19T14:52:08.600Z,64.50
2023-02-19T14:54:38.801Z,35.00
2023-02-19T14:57:10.568Z,76.50
2023-02-19T14:59:37.169Z,39.50
2023-02-19T15:02:17.330Z,85.00
2023-02-19T15:04:44.062Z,86.25
2023-02-19T15:07:16.225Z,69.75
2023-02-19T15:09:45.433Z,50.00
2023-02-19T15:12:17.065Z,43.00
2023-02-19T15:14:44.339Z,33.33
2023-02-19T15:17:13.692Z,60.50
2023-02-19T15:19:43.184Z,82.50
2023-02-19T15:22:18.116Z,83.00
2023-02-19T15:24:47.620Z,54.50
2023-02-19T15:27:20.059Z,43.75
2023-02-19T15:29:47.441Z,45.00
2023-02-19T15:32:18.645Z,31.00
2023-02-19T15:34:56.583Z,58.25
2023-02-19T15:37:24.658Z,58.25
2023-02-19T15:39:52.822Z,50.50
2023-02-19T15:42:27.092Z,62.50
2023-02-19T15:44:57.910Z,66.25
2023-02-19T15:47:29.722Z,64.25
2023-02-19T15:49:57.474Z,51.00
2023-02-19T15:52:31.277Z,42.00
2023-02-19T15:55:17.989Z,50.00
2023-02-19T15:57:46.803Z,55.50
2023-02-19T16:00:31.463Z,38.00
2023-02-19T16:02:58.452Z,35.67
2023-02-19T16:05:27.217Z,37.33
2023-02-19T16:08:18.508Z,33.00
2023-02-19T16:10:55.779Z,28.67
2023-02-19T16:13:29.740Z,19.00
2023-02-19T16:15:59.088Z,20.67
2023-02-19T16:18:25.717Z,29.00
2023-02-19T16:20:52.217Z,18.00
2023-02-19T16:23:24.100Z,28.67
2023-02-19T16:25:57.688Z,15.67
2023-02-19T16:28:24.896Z,24.33
2023-02-19T16:31:05.213Z,31.67
2023-02-19T16:33:32.010Z,30.00
2023-02-19T16:36:15.446Z,29.67
2023-02-19T16:38:41.906Z,25.67
2023-02-19T16:41:12.924Z,28.67
2023-02-19T16:43:43.645Z,39.33
2023-02-19T16:46:12.949Z,29.33
2023-02-19T16:48:39.553Z,32.00
2023-02-19T16:51:06.889Z,30.67
2023-02-19T16:53:33.526Z,39.67
2023-02-19T16:56:00.034Z,49.75
2023-02-19T16:58:27.165Z,26.33
2023-02-19T17:00:53.968Z,28.75
2023-02-19T17:03:22.700Z,34.00
2023-02-19T17:05:49.535Z,86.75
2023-02-19T17:08:37.220Z,176.00
2023-02-19T17:11:05.177Z,36.50
2023-02-19T17:13:31.746Z,40.75
2023-02-19T17:15:58.803Z,68.25
2023-02-19T17:18:25.403Z,69.25
2023-02-19T17:21:11.253Z,45.50
2023-02-19T17:23:37.928Z,58.00
2023-02-19T17:26:04.817Z,43.25
2023-02-19T17:28:34.531Z,54.25
2023-02-19T17:31:01.056Z,57.00
2023-02-19T17:33:35.248Z,50.25
2023-02-19T17:36:01.827Z,38.50
2023-02-19T17:38:28.762Z,37.75
2023-02-19T17:40:55.172Z,29.00
2023-02-19T17:43:21.553Z,29.75
2023-02-19T17:45:48.069Z,35.50
2023-02-19T17:48:15.331Z,31.25
2023-02-19T17:50:41.864Z,34.75
2023-02-19T17:53:08.227Z,38.25
2023-02-19T17:55:34.750Z,24.25
2023-02-19T17:58:01.168Z,42.00
2023-02-19T18:00:31.803Z,45.75
2023-02-19T18:02:58.364Z,44.50
2023-02-19T18:05:24.830Z,47.25
2023-02-19T18:07:51.452Z,48.75
2023-02-19T18:10:18.908Z,42.75
2023-02-19T18:12:45.365Z,57.75
2023-02-19T18:15:15.996Z,40.75
2023-02-19T18:17:42.497Z,40.75
2023-02-19T18:20:09.359Z,38.50
2023-02-19T18:22:35.813Z,41.00
2023-02-19T18:25:02.620Z,40.25
2023-02-19T18:27:29.166Z,35.50
2023-02-19T18:29:56.123Z,33.50
2023-02-19T18:32:23.657Z,45.75
2023-02-19T18:34:54.616Z,48.00
2023-02-19T18:37:21.593Z,28.00
2023-02-19T18:39:48.155Z,27.50
2023-02-19T18:42:15.179Z,29.25
2023-02-19T18:44:42.203Z,25.75
2023-02-19T18:47:09.546Z,32.50
2023-02-19T18:49:35.911Z,35.75
2023-02-19T18:52:02.524Z,38.50
2023-02-19T18:54:29.247Z,42.75
2023-02-19T18:56:55.898Z,42.00
2023-02-19T18:59:22.527Z,48.50
2023-02-19T19:01:49.225Z,41.75
2023-02-19T19:04:15.698Z,43.00
2023-02-19T19:06:42.042Z,18.50
2023-02-19T19:09:08.824Z,49.00
2023-02-19T19:11:35.543Z,26.25
2023-02-19T19:14:01.956Z,38.75
2023-02-19T19:16:29.148Z,40.00
2023-02-19T19:18:56.209Z,41.25
2023-02-19T19:21:23.128Z,35.25
2023-02-19T19:23:50.145Z,46.50
2023-02-19T19:26:17.299Z,29.00
2023-02-19T19:28:46.649Z,36.25
2023-02-19T19:31:14.202Z,36.25
2023-02-19T19:33:41.429Z,37.50
2023-02-19T19:36:08.401Z,45.25
2023-02-19T19:38:34.839Z,41.50
2023-02-19T19:41:01.446Z,29.25
2023-02-19T19:43:31.385Z,38.00
2023-02-19T19:45:57.896Z,28.25
2023-02-19T19:48:24.908Z,37.25
2023-02-19T19:50:51.528Z,29.25
2023-02-19T19:53:17.959Z,38.75
2023-02-19T19:55:44.574Z,34.00
2023-02-19T19:58:11.128Z,34.50
2023-02-19T20:00:37.514Z,55.25
2023-02-19T20:03:04.059Z,63.75
2023-02-19T20:05:30.514Z,67.25
2023-02-19T20:07:56.946Z,50.25
2023-02-19T20:10:23.370Z,47.00
2023-02-19T20:12:49.885Z,41.75
2023-02-19T20:15:20.719Z,19.00
2023-02-19T20:17:47.243Z,37.50
2023-02-19T20:20:13.792Z,46.50
2023-02-19T20:22:40.222Z,40.00
2023-02-19T20:25:07.693Z,52.75
2023-02-19T20:27:34.184Z,56.25
2023-02-19T20:30:00.609Z,60.00
2023-02-19T20:32:27.070Z,65.00
2023-02-19T20:34:53.547Z,54.25
2023-02-19T20:37:19.942Z,54.75
2023-02-19T20:39:46.467Z,39.00
2023-02-19T20:42:16.448Z,30.00
2023-02-19T20:44:43.772Z,30.00
2023-02-19T20:47:10.148Z,34.50
2023-02-19T20:49:36.734Z,27.00
2023-02-19T20:52:06.087Z,22.00
2023-02-19T20:54:34.920Z,32.00
2023-02-19T20:57:02.910Z,23.75
2023-02-19T20:59:31.390Z,34.00
2023-02-19T21:01:58.679Z,28.25
2023-02-19T21:04:25.665Z,27.25
2023-02-19T21:06:52.361Z,27.75
2023-02-19T21:09:19.504Z,33.25
2023-02-19T21:11:46.120Z,32.25
2023-02-19T21:14:12.529Z,36.25
2023-02-19T21:16:38.965Z,33.75
2023-02-19T21:19:05.801Z,25.25
2023-02-19T21:21:34.508Z,36.00
2023-02-19T21:24:01.165Z,31.00
2023-02-19T21:26:38.598Z,25.75
2023-02-19T21:29:06.003Z,41.25
2023-02-19T21:31:40.112Z,42.50
2023-02-19T21:34:07.635Z,30.00
2023-02-19T21:36:34.368Z,35.25
2023-02-19T21:39:00.759Z,32.50
2023-02-19T21:41:27.521Z,29.25
2023-02-19T21:43:55.024Z,35.00
2023-02-19T21:46:25.082Z,28.25
2023-02-19T21:48:52.412Z,23.75
2023-02-19T21:51:19.379Z,27.25
2023-02-19T21:53:46.387Z,19.25
2023-02-19T21:56:23.293Z,34.25
2023-02-19T21:58:49.831Z,31.75
2023-02-19T22:01:20.625Z,27.75
2023-02-19T22:03:47.275Z,19.00
2023-02-19T22:06:13.982Z,24.25
2023-02-19T22:08:40.495Z,23.25
2023-02-19T22:11:07.188Z,25.25
2023-02-19T22:13:35.261Z,14.50
2023-02-19T22:16:02.072Z,26.75
2023-02-19T22:18:28.604Z,27.25
2023-02-19T22:20:55.029Z,23.75
2023-02-19T22:23:21.606Z,16.00
2023-02-19T22:25:48.382Z,26.00
2023-02-19T22:28:14.831Z,21.75
2023-02-19T22:30:42.853Z,22.00
2023-02-19T22:33:09.648Z,30.25
2023-02-19T22:35:36.343Z,19.75
2023-02-19T22:38:02.818Z,17.75
2023-02-19T22:40:29.265Z,12.50
2023-02-19T22:42:55.660Z,16.75
2023-02-19T22:45:22.063Z,18.75
2023-02-19T22:47:48.694Z,21.75
2023-02-19T22:50:19.552Z,11.50
2023-02-19T22:52:45.977Z,13.00
2023-02-19T22:55:12.396Z,11.00
2023-02-19T22:57:38.849Z,12.25
2023-02-19T23:00:06.438Z,17.00
2023-02-19T23:02:33.060Z,24.75
2023-02-19T23:04:59.522Z,23.25
2023-02-19T23:07:26.058Z,18.75
2023-02-19T23:09:52.515Z,24.25
2023-02-19T23:12:18.927Z,16.50
2023-02-19T23:14:46.674Z,17.50
2023-02-19T23:17:13.194Z,16.50
2023-02-19T23:19:39.558Z,15.75
2023-02-19T23:22:06.290Z,15.75
2023-02-19T23:24:32.726Z,21.00
2023-02-19T23:27:00.665Z,18.00
2023-02-19T23:29:27.633Z,29.50
2023-02-19T23:31:54.272Z,20.00
2023-02-19T23:34:20.887Z,23.25
2023-02-19T23:36:48.217Z,19.25
2023-02-19T23:39:15.783Z,22.75
2023-02-19T23:41:49.222Z,16.75
2023-02-19T23:44:16.398Z,21.50
2023-02-19T23:46:43.148Z,17.00
2023-02-19T23:49:09.611Z,16.50
2023-02-19T23:51:36.177Z,19.25
2023-02-19T23:54:02.575Z,15.25
2023-02-19T23:56:29.227Z,19.00
2023-02-19T23:58:55.990Z,19.50
